Airfield :
LOGIN :

Register | Disclaimer

   EN    FR    IT 

 










Legend :    VFR   Marginal VFR   IFR   Intensive IFR   Very Intensive IFR
Visi :
Ceiling :
>= 8 km
>= 3000ft
5 to 8 km
1000 to 3000 ft
1500m to 5 km
500 to 1000 ft
800 to 1500m
200 to 500 ft
< 800m
< 200 ft
Symbols :   Thunderstorms  Fog  Heavy snow  Heavy precipitations  Wind > 20 kt
SIGMETs :     Misc.  Thunderstorms  Icing  Turbulence  Mountain Waves  Volcanic Ashes







- Airport Elevation : 512 ft
- IATA code : URO
- Download approach charts


LFOP - Rouen Vallée de Seine

CURRENT METAR :
  • 220400Z AUTO 29004KT 260V320 9999 SCT016 BKN022 BKN036 13/12 Q1020

EXPIRED METARs :
  • 220330Z AUTO 28003KT 9999 -RADZ OVC035 13/11 Q1020
  • 220300Z AUTO 26001KT 9999 BKN033 BKN044 OVC084 13/12 Q1020
  • 220230Z AUTO VRB02KT 9999 -RA SCT044 BKN060 BKN070 13/12 Q1020
  • 220200Z AUTO VRB02KT 9999 -DZ FEW016 BKN029 OVC044 13/12 Q1020
  • 220130Z AUTO VRB02KT 9999 SCT027 OVC047 13/12 Q1020

TAF TAF LFOP
Valid from the 21 at 18:00 until the 22 at 18:00 UTC


211700Z 2118/2218 20009KT CAVOK
TEMPO 2120/2202 3000 DZRA BKN005 OVC013
BECMG 2202/2204 30010KT BKN020
ATIS : +33 2 35 80 80 34
Met : +33 2 32 86 52 80
No reported NOTAMs for that airfield.



MET'MAP, your aeronautical weather chart ! - Copyright ORBIFLY December 2007 - Disclaimer

ORBIFLY MET'MAP TEAM :

Programming & Development : Alexandra Zaïnal
Concept & Development : Baudouin d'Aumeries
Co-Development & Prog : Marc-Olivier Méhu
Technical & hardware support : Manuel Goepfert

Contact : metmap@orbifly.com




SOURCES & CREDITS :

   NOAA